2026/08/09

Sensor Date Temp./Hum.
h4-hermonville 09-08-2026 - 23:58 23.9°C / 48.5%
h2-hermonville 09-08-2026 - 23:54 23.3°C / 51%
h1-hermonville 09-08-2026 - 23:54 23.3°C / 51.5%
h3-hermonville 09-08-2026 - 23:50 23.5°C / 50.5%
h4-hermonville 09-08-2026 - 23:48 24.1°C / 48.5%
h1-hermonville 09-08-2026 - 23:44 23.3°C / 51.5%
h3-hermonville 09-08-2026 - 23:40 23.5°C / 51%
h4-hermonville 09-08-2026 - 23:38 24.2°C / 48.5%
h2-hermonville 09-08-2026 - 23:34 23.6°C / 52%
h1-hermonville 09-08-2026 - 23:34 23.5°C / 51.5%
h3-hermonville 09-08-2026 - 23:30 23.4°C / 50.5%
h4-hermonville 09-08-2026 - 23:28 24.3°C / 48%
h2-hermonville 09-08-2026 - 23:24 23.7°C / 51%
h1-hermonville 09-08-2026 - 23:24 23.7°C / 50.5%
h3-hermonville 09-08-2026 - 23:20 23.6°C / 50%
h4-hermonville 09-08-2026 - 23:18 24.3°C / 48%
h2-hermonville 09-08-2026 - 23:14 23.7°C / 50.5%
h1-hermonville 09-08-2026 - 23:14 23.8°C / 50.5%
h3-hermonville 09-08-2026 - 23:10 23.5°C / 50.5%
h4-hermonville 09-08-2026 - 23:08 24.4°C / 48%
h2-hermonville 09-08-2026 - 23:04 24.1°C / 50%
h1-hermonville 09-08-2026 - 23:04 23.8°C / 50.5%
h3-hermonville 09-08-2026 - 23:00 23.9°C / 50%
h4-hermonville 09-08-2026 - 22:58 24.6°C / 48%
h2-hermonville 09-08-2026 - 22:54 24.3°C / 50%
h1-hermonville 09-08-2026 - 22:54 24°C / 50%
h3-hermonville 09-08-2026 - 22:50 24.3°C / 48.5%
h4-hermonville 09-08-2026 - 22:48 24.5°C / 48%
h2-hermonville 09-08-2026 - 22:44 24.6°C / 48.5%
h4-hermonville 09-08-2026 - 22:38 24.8°C / 48%
h2-hermonville 09-08-2026 - 22:34 24.8°C / 49.5%
h1-hermonville 09-08-2026 - 22:34 24.4°C / 50%
h3-hermonville 09-08-2026 - 22:30 24.2°C / 49.5%
h4-hermonville 09-08-2026 - 22:28 24.9°C / 47.5%
h2-hermonville 09-08-2026 - 22:24 25.3°C / 49%
h3-hermonville 09-08-2026 - 22:20 24.6°C / 49.5%
h4-hermonville 09-08-2026 - 22:18 25°C / 47.5%
h2-hermonville 09-08-2026 - 22:14 25.5°C / 48%
h3-hermonville 09-08-2026 - 22:10 24.6°C / 48%
h4-hermonville 09-08-2026 - 22:08 25.3°C / 47%
h2-hermonville 09-08-2026 - 22:04 25.4°C / 49%
h3-hermonville 09-08-2026 - 22:00 25.1°C / 48.5%
h4-hermonville 09-08-2026 - 21:58 25.4°C / 47.5%
h2-hermonville 09-08-2026 - 21:54 26.3°C / 47.5%
h1-hermonville 09-08-2026 - 21:54 25°C / 49.5%
h3-hermonville 09-08-2026 - 21:50 25.2°C / 48%
h4-hermonville 09-08-2026 - 21:48 25.5°C / 46.5%
h2-hermonville 09-08-2026 - 21:44 26.2°C / 47.5%
h1-hermonville 09-08-2026 - 21:44 25.4°C / 48.5%
h3-hermonville 09-08-2026 - 21:40 25.8°C / 47%
h4-hermonville 09-08-2026 - 21:38 25.7°C / 47%
h2-hermonville 09-08-2026 - 21:34 26.8°C / 47%
h1-hermonville 09-08-2026 - 21:34 25.7°C / 48%
h3-hermonville 09-08-2026 - 21:30 25.7°C / 48%
h4-hermonville 09-08-2026 - 21:28 25.9°C / 46.5%
h2-hermonville 09-08-2026 - 21:24 27.2°C / 46%
h1-hermonville 09-08-2026 - 21:24 26°C / 47%
h3-hermonville 09-08-2026 - 21:20 26.3°C / 47.5%
h4-hermonville 09-08-2026 - 21:18 26°C / 46%
h2-hermonville 09-08-2026 - 21:14 27.4°C / 45.5%
h1-hermonville 09-08-2026 - 21:14 26.3°C / 46.5%
h4-hermonville 09-08-2026 - 21:08 26.4°C / 46.5%
h2-hermonville 09-08-2026 - 21:04 28.1°C / 44.5%
h1-hermonville 09-08-2026 - 21:04 26.7°C / 46%
h4-hermonville 09-08-2026 - 20:58 26.7°C / 44.5%
h2-hermonville 09-08-2026 - 20:54 28.2°C / 43.5%
h4-hermonville 09-08-2026 - 20:48 26.9°C / 44.5%
h2-hermonville 09-08-2026 - 20:44 28.3°C / 43%
h1-hermonville 09-08-2026 - 20:44 27.6°C / 44%
h3-hermonville 09-08-2026 - 20:40 28.3°C / 41.5%
h4-hermonville 09-08-2026 - 20:38 27.3°C / 43%
h2-hermonville 09-08-2026 - 20:34 27.8°C / 43%
h1-hermonville 09-08-2026 - 20:34 28.2°C / 41.5%
h3-hermonville 09-08-2026 - 20:30 28.6°C / 39.5%
h4-hermonville 09-08-2026 - 20:28 27.7°C / 40%
h2-hermonville 09-08-2026 - 20:24 27.5°C / 40%
h1-hermonville 09-08-2026 - 20:24 28.5°C / 38.5%
h3-hermonville 09-08-2026 - 20:20 28.9°C / 37.5%
h4-hermonville 09-08-2026 - 20:18 28°C / 38%
h2-hermonville 09-08-2026 - 20:14 28°C / 39%
h1-hermonville 09-08-2026 - 20:14 28.9°C / 37%
h3-hermonville 09-08-2026 - 20:10 28.8°C / 36.5%
h4-hermonville 09-08-2026 - 20:08 28.4°C / 37%
h2-hermonville 09-08-2026 - 20:04 28.7°C / 37.5%
h1-hermonville 09-08-2026 - 20:04 29.1°C / 36%
h3-hermonville 09-08-2026 - 20:00 28.9°C / 36%
h4-hermonville 09-08-2026 - 19:58 28.6°C / 36.5%
h2-hermonville 09-08-2026 - 19:54 29°C / 37%
h1-hermonville 09-08-2026 - 19:54 29.1°C / 35.5%
h3-hermonville 09-08-2026 - 19:50 28.7°C / 36%
h4-hermonville 09-08-2026 - 19:48 28.9°C / 35.5%
h2-hermonville 09-08-2026 - 19:44 29.4°C / 35.5%
h1-hermonville 09-08-2026 - 19:44 29.2°C / 35%
h3-hermonville 09-08-2026 - 19:40 29°C / 35.5%
h4-hermonville 09-08-2026 - 19:38 28.8°C / 36%
h2-hermonville 09-08-2026 - 19:34 29.5°C / 36%
h1-hermonville 09-08-2026 - 19:34 29.4°C / 35.5%
h3-hermonville 09-08-2026 - 19:30 29.6°C / 34.5%
h4-hermonville 09-08-2026 - 19:28 28.3°C / 36.5%
h2-hermonville 09-08-2026 - 19:24 29.7°C / 36%
h1-hermonville 09-08-2026 - 19:24 29.6°C / 34.5%
h3-hermonville 09-08-2026 - 19:20 29.5°C / 34.5%
h4-hermonville 09-08-2026 - 19:18 28.6°C / 36%
h1-hermonville 09-08-2026 - 19:14 29.4°C / 35%
h3-hermonville 09-08-2026 - 19:10 29.6°C / 34.5%
h4-hermonville 09-08-2026 - 19:08 28.8°C / 36%
h2-hermonville 09-08-2026 - 19:04 29.7°C / 35.5%
h1-hermonville 09-08-2026 - 19:04 29.2°C / 35.5%
h3-hermonville 09-08-2026 - 19:00 29.8°C / 34.5%
h4-hermonville 09-08-2026 - 18:58 28.7°C / 36%
h2-hermonville 09-08-2026 - 18:54 30.8°C / 34%
h1-hermonville 09-08-2026 - 18:54 29.2°C / 36%
h3-hermonville 09-08-2026 - 18:50 29.9°C / 34.5%
h4-hermonville 09-08-2026 - 18:48 28.7°C / 36%
h2-hermonville 09-08-2026 - 18:44 30°C / 35%
h1-hermonville 09-08-2026 - 18:44 29.1°C / 35.5%
h3-hermonville 09-08-2026 - 18:40 29.7°C / 34.5%
h2-hermonville 09-08-2026 - 18:34 30.1°C / 34.5%
h1-hermonville 09-08-2026 - 18:34 29°C / 36%
h3-hermonville 09-08-2026 - 18:30 29.4°C / 34.5%
h2-hermonville 09-08-2026 - 18:24 30.1°C / 34.5%
h1-hermonville 09-08-2026 - 18:24 28.9°C / 35.5%
h3-hermonville 09-08-2026 - 18:20 29.5°C / 34.5%
h4-hermonville 09-08-2026 - 18:18 28.9°C / 35%
h2-hermonville 09-08-2026 - 18:14 30.1°C / 34.5%
h1-hermonville 09-08-2026 - 18:14 29.2°C / 35%
h3-hermonville 09-08-2026 - 18:10 30.2°C / 33%
h4-hermonville 09-08-2026 - 18:08 28.4°C / 35.5%
h2-hermonville 09-08-2026 - 18:04 30.5°C / 33.5%
h1-hermonville 09-08-2026 - 18:04 29.2°C / 35%
h3-hermonville 09-08-2026 - 18:00 30.2°C / 33%
h4-hermonville 09-08-2026 - 17:58 28.2°C / 36%
h2-hermonville 09-08-2026 - 17:54 31.6°C / 32%
h1-hermonville 09-08-2026 - 17:54 29.5°C / 34.5%
h3-hermonville 09-08-2026 - 17:50 29.9°C / 33.5%
h4-hermonville 09-08-2026 - 17:48 28.3°C / 36%
h2-hermonville 09-08-2026 - 17:44 32.6°C / 30.5%
h1-hermonville 09-08-2026 - 17:44 29.4°C / 34.5%
h3-hermonville 09-08-2026 - 17:40 30.2°C / 33%
h2-hermonville 09-08-2026 - 17:34 31.8°C / 31.5%
h1-hermonville 09-08-2026 - 17:34 29°C / 35%
h3-hermonville 09-08-2026 - 17:30 29.9°C / 33.5%
h4-hermonville 09-08-2026 - 17:28 28.3°C / 35.5%
h1-hermonville 09-08-2026 - 17:24 29.2°C / 34.5%
h3-hermonville 09-08-2026 - 17:20 29.8°C / 33.5%
h4-hermonville 09-08-2026 - 17:18 28°C / 36%
h2-hermonville 09-08-2026 - 17:14 32°C / 31%
h1-hermonville 09-08-2026 - 17:14 29.1°C / 35%
h3-hermonville 09-08-2026 - 17:10 29.8°C / 33%
h4-hermonville 09-08-2026 - 17:08 28.1°C / 35.5%
h2-hermonville 09-08-2026 - 17:04 32°C / 31%
h1-hermonville 09-08-2026 - 17:04 28.8°C / 35%
h3-hermonville 09-08-2026 - 17:00 29.6°C / 33%
h4-hermonville 09-08-2026 - 16:58 28.1°C / 35.5%
h2-hermonville 09-08-2026 - 16:54 33.4°C / 28.5%
h1-hermonville 09-08-2026 - 16:54 28.7°C / 35%
h3-hermonville 09-08-2026 - 16:50 29.6°C / 33%
h4-hermonville 09-08-2026 - 16:48 28.1°C / 35.5%
h2-hermonville 09-08-2026 - 16:44 31.1°C / 32.5%
h1-hermonville 09-08-2026 - 16:44 28.8°C / 34%
h3-hermonville 09-08-2026 - 16:40 29.1°C / 33.5%
h4-hermonville 09-08-2026 - 16:38 28.1°C / 34.5%
h2-hermonville 09-08-2026 - 16:34 28°C / 36%
h1-hermonville 09-08-2026 - 16:34 28.5°C / 34.5%
h3-hermonville 09-08-2026 - 16:30 29.3°C / 33%
h4-hermonville 09-08-2026 - 16:28 28.1°C / 35%
h2-hermonville 09-08-2026 - 16:24 28.4°C / 35.5%
h1-hermonville 09-08-2026 - 16:24 28.6°C / 34%
h3-hermonville 09-08-2026 - 16:20 29.2°C / 32.5%
h4-hermonville 09-08-2026 - 16:18 27.7°C / 35%
h2-hermonville 09-08-2026 - 16:14 26.9°C / 37.5%
h1-hermonville 09-08-2026 - 16:14 28.1°C / 34%
h3-hermonville 09-08-2026 - 16:10 28.8°C / 33%
h4-hermonville 09-08-2026 - 16:08 27.4°C / 35.5%
h2-hermonville 09-08-2026 - 16:04 26.7°C / 37.5%
h1-hermonville 09-08-2026 - 16:04 28°C / 34%
h3-hermonville 09-08-2026 - 16:00 28.6°C / 32.5%
h4-hermonville 09-08-2026 - 15:58 27.3°C / 34.5%
h2-hermonville 09-08-2026 - 15:54 27.9°C / 35.5%
h1-hermonville 09-08-2026 - 15:54 27.6°C / 34.5%
h3-hermonville 09-08-2026 - 15:50 28.3°C / 33%
h4-hermonville 09-08-2026 - 15:48 27.4°C / 35%
h2-hermonville 09-08-2026 - 15:44 27.3°C / 36.5%
h1-hermonville 09-08-2026 - 15:44 27.6°C / 34.5%
h3-hermonville 09-08-2026 - 15:40 28.1°C / 33%
h4-hermonville 09-08-2026 - 15:38 27.1°C / 35%
h2-hermonville 09-08-2026 - 15:34 27.3°C / 36%
h1-hermonville 09-08-2026 - 15:34 27.4°C / 35%
h3-hermonville 09-08-2026 - 15:30 28.3°C / 33.5%
h4-hermonville 09-08-2026 - 15:28 27.3°C / 34.5%
h2-hermonville 09-08-2026 - 15:24 27.3°C / 36.5%
h1-hermonville 09-08-2026 - 15:24 27.4°C / 34.5%
h3-hermonville 09-08-2026 - 15:20 28.2°C / 32.5%
h4-hermonville 09-08-2026 - 15:18 27.3°C / 34.5%
h1-hermonville 09-08-2026 - 15:14 27.3°C / 35%
h3-hermonville 09-08-2026 - 15:10 28.3°C / 32.5%
h4-hermonville 09-08-2026 - 15:08 27°C / 35%
h2-hermonville 09-08-2026 - 15:04 28.1°C / 33.5%
h1-hermonville 09-08-2026 - 15:04 27.3°C / 34.5%
h3-hermonville 09-08-2026 - 15:00 28.2°C / 32.5%
h4-hermonville 09-08-2026 - 14:58 27°C / 34.5%
h1-hermonville 09-08-2026 - 14:54 27.3°C / 35%
h3-hermonville 09-08-2026 - 14:50 28.3°C / 32.5%
h4-hermonville 09-08-2026 - 14:48 27.2°C / 34.5%
h1-hermonville 09-08-2026 - 14:44 27°C / 35%
h3-hermonville 09-08-2026 - 14:40 28.1°C / 33%
h4-hermonville 09-08-2026 - 14:38 27°C / 34%
h1-hermonville 09-08-2026 - 14:34 27.2°C / 34.5%
h4-hermonville 09-08-2026 - 14:28 26.4°C / 35.5%
h3-hermonville 09-08-2026 - 14:20 27.5°C / 32.5%
h4-hermonville 09-08-2026 - 14:18 26.4°C / 34.5%
h1-hermonville 09-08-2026 - 14:14 26.2°C / 35.5%
h3-hermonville 09-08-2026 - 14:10 27.1°C / 33.5%
h1-hermonville 09-08-2026 - 14:04 25.9°C / 35.5%
h3-hermonville 09-08-2026 - 14:00 26.7°C / 35.5%
h4-hermonville 09-08-2026 - 13:58 25.9°C / 37.5%
h2-hermonville 09-08-2026 - 13:54 25.5°C / 38.5%
h1-hermonville 09-08-2026 - 13:54 25.4°C / 38.5%
h3-hermonville 09-08-2026 - 13:50 26°C / 35.5%
h4-hermonville 09-08-2026 - 13:48 25.6°C / 36.5%
h2-hermonville 09-08-2026 - 13:44 25°C / 40%
h1-hermonville 09-08-2026 - 13:44 25.3°C / 37.5%
h3-hermonville 09-08-2026 - 13:40 25.8°C / 38%
h4-hermonville 09-08-2026 - 13:38 25.6°C / 36.5%
h2-hermonville 09-08-2026 - 13:34 25°C / 39.5%
h1-hermonville 09-08-2026 - 13:34 25.1°C / 39%
h3-hermonville 09-08-2026 - 13:30 25.9°C / 37.5%
h2-hermonville 09-08-2026 - 13:24 25.3°C / 39.5%
h1-hermonville 09-08-2026 - 13:24 25°C / 38.5%
h3-hermonville 09-08-2026 - 13:20 25.7°C / 36.5%
h4-hermonville 09-08-2026 - 13:18 25°C / 37.5%
h2-hermonville 09-08-2026 - 13:14 25.2°C / 38%
h1-hermonville 09-08-2026 - 13:14 25°C / 38.5%
h3-hermonville 09-08-2026 - 13:10 25.4°C / 35%
h4-hermonville 09-08-2026 - 13:08 24.6°C / 37.5%
h2-hermonville 09-08-2026 - 13:04 24.7°C / 38%
h1-hermonville 09-08-2026 - 13:04 24.8°C / 38%
h3-hermonville 09-08-2026 - 13:00 25.1°C / 39.5%
h4-hermonville 09-08-2026 - 12:58 24.5°C / 43.5%
h2-hermonville 09-08-2026 - 12:54 23.8°C / 47%
h1-hermonville 09-08-2026 - 12:54 24.8°C / 44.5%
h3-hermonville 09-08-2026 - 12:50 24.6°C / 44.5%
h4-hermonville 09-08-2026 - 12:48 24.4°C / 44%
h2-hermonville 09-08-2026 - 12:44 23.9°C / 46.5%
h1-hermonville 09-08-2026 - 12:44 24.6°C / 44.5%
h3-hermonville 09-08-2026 - 12:40 24.5°C / 43.5%
h4-hermonville 09-08-2026 - 12:38 24.4°C / 44%
h2-hermonville 09-08-2026 - 12:34 24.1°C / 46.5%
h1-hermonville 09-08-2026 - 12:34 24°C / 46.5%
h3-hermonville 09-08-2026 - 12:30 24.3°C / 45.5%
h4-hermonville 09-08-2026 - 12:28 24°C / 46.5%
h2-hermonville 09-08-2026 - 12:24 23.9°C / 47.5%
h1-hermonville 09-08-2026 - 12:24 23.4°C / 49%
h3-hermonville 09-08-2026 - 12:20 23.5°C / 48.5%
h4-hermonville 09-08-2026 - 12:18 23.3°C / 47%
h2-hermonville 09-08-2026 - 12:14 23.5°C / 47.5%
h1-hermonville 09-08-2026 - 12:14 22.8°C / 49%
h3-hermonville 09-08-2026 - 12:10 23.1°C / 48%
h4-hermonville 09-08-2026 - 12:08 23.1°C / 47.5%
h2-hermonville 09-08-2026 - 12:04 23.3°C / 47%
h1-hermonville 09-08-2026 - 12:04 22.7°C / 48.5%
h3-hermonville 09-08-2026 - 12:00 22.9°C / 47.5%
h4-hermonville 09-08-2026 - 11:58 23.1°C / 46.5%
h2-hermonville 09-08-2026 - 11:54 23.2°C / 47%
h1-hermonville 09-08-2026 - 11:54 22.8°C / 48%
h3-hermonville 09-08-2026 - 11:50 22.9°C / 47%
h2-hermonville 09-08-2026 - 11:44 23.2°C / 47%
h1-hermonville 09-08-2026 - 11:44 22.7°C / 48%
h3-hermonville 09-08-2026 - 11:40 22.7°C / 47.5%
h4-hermonville 09-08-2026 - 11:38 23.1°C / 46.5%
h2-hermonville 09-08-2026 - 11:34 23.2°C / 47%
h1-hermonville 09-08-2026 - 11:34 22.5°C / 48.5%
h3-hermonville 09-08-2026 - 11:30 22.7°C / 47.5%
h4-hermonville 09-08-2026 - 11:28 22.9°C / 46%
h2-hermonville 09-08-2026 - 11:24 23.1°C / 47%
h1-hermonville 09-08-2026 - 11:24 22.4°C / 48.5%
h3-hermonville 09-08-2026 - 11:20 22.6°C / 48.5%
h4-hermonville 09-08-2026 - 11:18 22.9°C / 47.5%
h2-hermonville 09-08-2026 - 11:14 23.1°C / 47.5%
h1-hermonville 09-08-2026 - 11:14 22.4°C / 50%
h3-hermonville 09-08-2026 - 11:10 22.6°C / 48.5%
h2-hermonville 09-08-2026 - 11:04 23.1°C / 47%
h1-hermonville 09-08-2026 - 11:04 22.2°C / 49%
h3-hermonville 09-08-2026 - 11:00 22.6°C / 48%
h4-hermonville 09-08-2026 - 10:58 23.2°C / 46%
h2-hermonville 09-08-2026 - 10:54 23.2°C / 46.5%
h1-hermonville 09-08-2026 - 10:54 22.3°C / 48.5%
h3-hermonville 09-08-2026 - 10:50 22.4°C / 48%
h2-hermonville 09-08-2026 - 10:44 23.4°C / 46.5%
h1-hermonville 09-08-2026 - 10:44 22.1°C / 49%
h4-hermonville 09-08-2026 - 10:38 23.9°C / 44%
h2-hermonville 09-08-2026 - 10:34 23.4°C / 47%
h1-hermonville 09-08-2026 - 10:34 22.3°C / 49.5%
h3-hermonville 09-08-2026 - 10:30 22.4°C / 48.5%
h4-hermonville 09-08-2026 - 10:28 24.8°C / 42%
h2-hermonville 09-08-2026 - 10:24 23°C / 47.5%
h1-hermonville 09-08-2026 - 10:24 22.2°C / 49%
h3-hermonville 09-08-2026 - 10:20 22.5°C / 48%
h4-hermonville 09-08-2026 - 10:18 25.5°C / 41%
h2-hermonville 09-08-2026 - 10:14 22.6°C / 47.5%
h1-hermonville 09-08-2026 - 10:14 22°C / 49%
h3-hermonville 09-08-2026 - 10:10 22.1°C / 48.5%
h4-hermonville 09-08-2026 - 10:08 24.9°C / 41%
h2-hermonville 09-08-2026 - 10:04 22.2°C / 49%
h1-hermonville 09-08-2026 - 10:04 21.3°C / 50%
h3-hermonville 09-08-2026 - 10:00 21.6°C / 50%
h4-hermonville 09-08-2026 - 09:58 24.3°C / 43%
h2-hermonville 09-08-2026 - 09:54 21.6°C / 51%
h1-hermonville 09-08-2026 - 09:54 20.9°C / 52%
h3-hermonville 09-08-2026 - 09:50 21°C / 51.5%
h4-hermonville 09-08-2026 - 09:48 23°C / 45.5%
h2-hermonville 09-08-2026 - 09:44 21.2°C / 51.5%
h1-hermonville 09-08-2026 - 09:44 20.5°C / 53.5%
h3-hermonville 09-08-2026 - 09:40 20.5°C / 53%
h4-hermonville 09-08-2026 - 09:38 22.7°C / 47%
h2-hermonville 09-08-2026 - 09:34 20.6°C / 53%
h1-hermonville 09-08-2026 - 09:34 19.7°C / 56%
h3-hermonville 09-08-2026 - 09:30 20.5°C / 52.5%
h4-hermonville 09-08-2026 - 09:28 20.5°C / 52%
h2-hermonville 09-08-2026 - 09:24 20.8°C / 52%
h1-hermonville 09-08-2026 - 09:24 18.7°C / 58%
h3-hermonville 09-08-2026 - 09:20 20.8°C / 51.5%
h4-hermonville 09-08-2026 - 09:18 20.1°C / 52.5%
h2-hermonville 09-08-2026 - 09:14 20.5°C / 52.5%
h1-hermonville 09-08-2026 - 09:14 18.8°C / 57.5%
h3-hermonville 09-08-2026 - 09:10 20.4°C / 52%
h4-hermonville 09-08-2026 - 09:08 20.2°C / 51.5%
h2-hermonville 09-08-2026 - 09:04 20.2°C / 52.5%
h1-hermonville 09-08-2026 - 09:04 18.9°C / 56.5%
h4-hermonville 09-08-2026 - 08:58 20.6°C / 51%
h2-hermonville 09-08-2026 - 08:54 20.1°C / 53.5%
h1-hermonville 09-08-2026 - 08:54 18.8°C / 57.5%
h3-hermonville 09-08-2026 - 08:50 20°C / 53.5%
h4-hermonville 09-08-2026 - 08:48 21.5°C / 49%
h2-hermonville 09-08-2026 - 08:44 19.7°C / 54%
h1-hermonville 09-08-2026 - 08:44 18.7°C / 57.5%
h3-hermonville 09-08-2026 - 08:40 20°C / 52%
h4-hermonville 09-08-2026 - 08:38 21.8°C / 46.5%
h2-hermonville 09-08-2026 - 08:34 19.6°C / 52.5%
h1-hermonville 09-08-2026 - 08:34 18.6°C / 56%
h4-hermonville 09-08-2026 - 08:28 20.5°C / 50%
h2-hermonville 09-08-2026 - 08:24 19.5°C / 54%
h1-hermonville 09-08-2026 - 08:24 17.9°C / 58.5%
h3-hermonville 09-08-2026 - 08:20 19.6°C / 53%
h4-hermonville 09-08-2026 - 08:18 19.9°C / 51.5%
h2-hermonville 09-08-2026 - 08:14 19.1°C / 55%
h1-hermonville 09-08-2026 - 08:14 17.8°C / 59%
h3-hermonville 09-08-2026 - 08:10 19.4°C / 54.5%
h4-hermonville 09-08-2026 - 08:08 19.4°C / 53.5%
h2-hermonville 09-08-2026 - 08:04 18.9°C / 56.5%
h1-hermonville 09-08-2026 - 08:04 17.6°C / 60%
h3-hermonville 09-08-2026 - 08:00 18.7°C / 58%
h4-hermonville 09-08-2026 - 07:58 19.4°C / 55%
h2-hermonville 09-08-2026 - 07:54 18.6°C / 58%
h1-hermonville 09-08-2026 - 07:54 17.5°C / 61%
h3-hermonville 09-08-2026 - 07:50 18.4°C / 58.5%
h4-hermonville 09-08-2026 - 07:48 19.4°C / 55%
h2-hermonville 09-08-2026 - 07:44 18.6°C / 58%
h1-hermonville 09-08-2026 - 07:44 17.7°C / 61%
h3-hermonville 09-08-2026 - 07:40 18.2°C / 58.5%
h4-hermonville 09-08-2026 - 07:38 19.2°C / 55%
h2-hermonville 09-08-2026 - 07:34 18.4°C / 57%
h1-hermonville 09-08-2026 - 07:34 17.5°C / 60%
h4-hermonville 09-08-2026 - 07:28 19.1°C / 54.5%
h2-hermonville 09-08-2026 - 07:24 18.2°C / 57%
h1-hermonville 09-08-2026 - 07:24 17.4°C / 59.5%
h3-hermonville 09-08-2026 - 07:20 17.9°C / 58.5%
h2-hermonville 09-08-2026 - 07:14 17.9°C / 59%
h1-hermonville 09-08-2026 - 07:14 17.5°C / 59.5%
h3-hermonville 09-08-2026 - 07:10 17.9°C / 58%
h4-hermonville 09-08-2026 - 07:08 18.8°C / 54.5%
h2-hermonville 09-08-2026 - 07:04 18°C / 58%
h1-hermonville 09-08-2026 - 07:04 17.1°C / 60%
h3-hermonville 09-08-2026 - 07:00 17.8°C / 58%
h4-hermonville 09-08-2026 - 06:58 18.8°C / 55%
h2-hermonville 09-08-2026 - 06:54 18.1°C / 59%
h1-hermonville 09-08-2026 - 06:54 17.2°C / 62%
h3-hermonville 09-08-2026 - 06:50 18°C / 59%
h4-hermonville 09-08-2026 - 06:48 19°C / 55%
h1-hermonville 09-08-2026 - 06:44 17.4°C / 60.5%
h3-hermonville 09-08-2026 - 06:40 17.8°C / 59%
h4-hermonville 09-08-2026 - 06:38 19.2°C / 53.5%
h2-hermonville 09-08-2026 - 06:34 18°C / 58%
h1-hermonville 09-08-2026 - 06:34 17.8°C / 59%
h3-hermonville 09-08-2026 - 06:30 17.6°C / 59%
h4-hermonville 09-08-2026 - 06:28 19.4°C / 53%
h2-hermonville 09-08-2026 - 06:24 18.2°C / 58%
h1-hermonville 09-08-2026 - 06:24 17.6°C / 59.5%
h3-hermonville 09-08-2026 - 06:20 17.8°C / 59%
h4-hermonville 09-08-2026 - 06:18 19.3°C / 53.5%
h2-hermonville 09-08-2026 - 06:14 18.1°C / 58.5%
h1-hermonville 09-08-2026 - 06:14 17.4°C / 60.5%
h3-hermonville 09-08-2026 - 06:10 17.7°C / 59%
h4-hermonville 09-08-2026 - 06:08 19.1°C / 54%
h2-hermonville 09-08-2026 - 06:04 18.2°C / 58.5%
h1-hermonville 09-08-2026 - 06:04 17.4°C / 61%
h3-hermonville 09-08-2026 - 06:00 17.8°C / 59%
h4-hermonville 09-08-2026 - 05:58 19.2°C / 54%
h2-hermonville 09-08-2026 - 05:54 18.4°C / 57.5%
h1-hermonville 09-08-2026 - 05:54 17.5°C / 60.5%
h3-hermonville 09-08-2026 - 05:50 18.1°C / 58.5%
h4-hermonville 09-08-2026 - 05:48 19.4°C / 53.5%
h2-hermonville 09-08-2026 - 05:44 18.7°C / 56.5%
h1-hermonville 09-08-2026 - 05:44 17.8°C / 59%
h3-hermonville 09-08-2026 - 05:40 18°C / 57.5%
h4-hermonville 09-08-2026 - 05:38 19.4°C / 52%
h2-hermonville 09-08-2026 - 05:34 18.8°C / 56%
h1-hermonville 09-08-2026 - 05:34 17.8°C / 58.5%
h3-hermonville 09-08-2026 - 05:30 18.4°C / 56.5%
h4-hermonville 09-08-2026 - 05:28 19.3°C / 53%
h2-hermonville 09-08-2026 - 05:24 18.8°C / 54%
h1-hermonville 09-08-2026 - 05:24 18°C / 54.5%
h3-hermonville 09-08-2026 - 05:20 18.3°C / 55%
h4-hermonville 09-08-2026 - 05:18 19.6°C / 51.5%
h2-hermonville 09-08-2026 - 05:14 18.8°C / 55.5%
h1-hermonville 09-08-2026 - 05:14 18.6°C / 56%
h3-hermonville 09-08-2026 - 05:10 18.3°C / 55.5%
h4-hermonville 09-08-2026 - 05:08 19.8°C / 50.5%
h2-hermonville 09-08-2026 - 05:04 19°C / 55%
h1-hermonville 09-08-2026 - 05:04 18.2°C / 57%
h3-hermonville 09-08-2026 - 05:00 19.3°C / 53.5%
h4-hermonville 09-08-2026 - 04:58 19.4°C / 50.5%
h2-hermonville 09-08-2026 - 04:54 19.2°C / 53%
h1-hermonville 09-08-2026 - 04:54 18.4°C / 53%
h3-hermonville 09-08-2026 - 04:50 19.1°C / 52.5%
h2-hermonville 09-08-2026 - 04:44 19.1°C / 54%
h3-hermonville 09-08-2026 - 04:40 19.2°C / 53.5%
h4-hermonville 09-08-2026 - 04:38 19.8°C / 50.5%
h2-hermonville 09-08-2026 - 04:34 19.3°C / 53.5%
h3-hermonville 09-08-2026 - 04:30 19.5°C / 51%
h4-hermonville 09-08-2026 - 04:28 20.7°C / 47.5%
h2-hermonville 09-08-2026 - 04:24 19.3°C / 51.5%
h1-hermonville 09-08-2026 - 04:24 20°C / 49%
h3-hermonville 09-08-2026 - 04:20 19.4°C / 50.5%
h4-hermonville 09-08-2026 - 04:18 20.9°C / 46.5%
h2-hermonville 09-08-2026 - 04:14 19.3°C / 53%
h1-hermonville 09-08-2026 - 04:14 20.1°C / 49.5%
h3-hermonville 09-08-2026 - 04:10 19.5°C / 49%
h4-hermonville 09-08-2026 - 04:08 21.1°C / 46%
h2-hermonville 09-08-2026 - 04:04 19.4°C / 52%
h1-hermonville 09-08-2026 - 04:04 20.1°C / 49%
h3-hermonville 09-08-2026 - 04:00 19.3°C / 49%
h4-hermonville 09-08-2026 - 03:58 21.2°C / 44.5%
h1-hermonville 09-08-2026 - 03:54 20°C / 49%
h3-hermonville 09-08-2026 - 03:50 19°C / 49.5%
h4-hermonville 09-08-2026 - 03:48 21.2°C / 45%
h2-hermonville 09-08-2026 - 03:44 19.2°C / 53%
h1-hermonville 09-08-2026 - 03:44 19.8°C / 50%
h3-hermonville 09-08-2026 - 03:40 19.1°C / 49%
h4-hermonville 09-08-2026 - 03:38 21.1°C / 45.5%
h2-hermonville 09-08-2026 - 03:34 19.4°C / 52.5%
h1-hermonville 09-08-2026 - 03:34 20°C / 49.5%
h3-hermonville 09-08-2026 - 03:30 19.5°C / 49%
h2-hermonville 09-08-2026 - 03:24 19.4°C / 51.5%
h1-hermonville 09-08-2026 - 03:24 20.2°C / 48.5%
h3-hermonville 09-08-2026 - 03:20 19.2°C / 50.5%
h4-hermonville 09-08-2026 - 03:18 21.3°C / 44.5%
h2-hermonville 09-08-2026 - 03:14 19.4°C / 50.5%
h1-hermonville 09-08-2026 - 03:14 20.1°C / 48%
h3-hermonville 09-08-2026 - 03:10 19.9°C / 48.5%
h4-hermonville 09-08-2026 - 03:08 21.1°C / 45.5%
h2-hermonville 09-08-2026 - 03:04 19.6°C / 51%
h1-hermonville 09-08-2026 - 03:04 20.4°C / 48%
h3-hermonville 09-08-2026 - 03:00 19.7°C / 49.5%
h4-hermonville 09-08-2026 - 02:58 21.3°C / 44.5%
h2-hermonville 09-08-2026 - 02:54 19.4°C / 50.5%
h1-hermonville 09-08-2026 - 02:54 20.4°C / 47.5%
h3-hermonville 09-08-2026 - 02:50 19.9°C / 48.5%
h4-hermonville 09-08-2026 - 02:48 21.5°C / 44%
h2-hermonville 09-08-2026 - 02:44 19.8°C / 49.5%
h1-hermonville 09-08-2026 - 02:44 20.4°C / 46.5%
h3-hermonville 09-08-2026 - 02:40 20.4°C / 45.5%
h4-hermonville 09-08-2026 - 02:38 21.4°C / 44.5%
h2-hermonville 09-08-2026 - 02:34 19.7°C / 49.5%
h1-hermonville 09-08-2026 - 02:34 20.5°C / 47%
h3-hermonville 09-08-2026 - 02:30 20.1°C / 47%
h4-hermonville 09-08-2026 - 02:28 21.5°C / 44%
h1-hermonville 09-08-2026 - 02:24 20.8°C / 46.5%
h3-hermonville 09-08-2026 - 02:20 20.3°C / 45.5%
h4-hermonville 09-08-2026 - 02:18 21.7°C / 43%
h2-hermonville 09-08-2026 - 02:14 20°C / 46.5%
h1-hermonville 09-08-2026 - 02:14 20.9°C / 44.5%
h3-hermonville 09-08-2026 - 02:10 20.6°C / 44.5%
h4-hermonville 09-08-2026 - 02:08 21.8°C / 42.5%
h2-hermonville 09-08-2026 - 02:04 20.3°C / 47.5%
h1-hermonville 09-08-2026 - 02:04 21°C / 45%
h3-hermonville 09-08-2026 - 02:00 20.5°C / 46%
h4-hermonville 09-08-2026 - 01:58 21.9°C / 41.5%
h2-hermonville 09-08-2026 - 01:54 20.6°C / 45%
h1-hermonville 09-08-2026 - 01:54 21.1°C / 43.5%
h3-hermonville 09-08-2026 - 01:50 21.2°C / 41.5%
h4-hermonville 09-08-2026 - 01:48 21.8°C / 41.5%
h2-hermonville 09-08-2026 - 01:44 20.7°C / 44.5%
h1-hermonville 09-08-2026 - 01:44 21.1°C / 43.5%
h3-hermonville 09-08-2026 - 01:40 21.2°C / 43.5%
h4-hermonville 09-08-2026 - 01:38 21.8°C / 42%
h2-hermonville 09-08-2026 - 01:34 20.9°C / 44%
h1-hermonville 09-08-2026 - 01:34 21.1°C / 41.5%
h4-hermonville 09-08-2026 - 01:28 22.2°C / 40.5%
h2-hermonville 09-08-2026 - 01:24 20.9°C / 44%
h1-hermonville 09-08-2026 - 01:24 21.3°C / 43%
h3-hermonville 09-08-2026 - 01:20 21.5°C / 39%
h4-hermonville 09-08-2026 - 01:18 22.5°C / 40%
h2-hermonville 09-08-2026 - 01:14 21.2°C / 43.5%
h3-hermonville 09-08-2026 - 01:10 21.7°C / 39.5%
h4-hermonville 09-08-2026 - 01:08 22.6°C / 39.5%
h2-hermonville 09-08-2026 - 01:04 21.4°C / 43%
h1-hermonville 09-08-2026 - 01:04 21.6°C / 41.5%
h3-hermonville 09-08-2026 - 01:00 21.9°C / 38%
h4-hermonville 09-08-2026 - 00:58 22.5°C / 39%
h2-hermonville 09-08-2026 - 00:54 21.6°C / 43.5%
h3-hermonville 09-08-2026 - 00:50 21.8°C / 40%
h4-hermonville 09-08-2026 - 00:48 22.6°C / 39.5%
h2-hermonville 09-08-2026 - 00:44 21.9°C / 43.5%
h1-hermonville 09-08-2026 - 00:44 21.7°C / 43%
h3-hermonville 09-08-2026 - 00:40 22.1°C / 37.5%
h4-hermonville 09-08-2026 - 00:38 22.9°C / 36.5%
h2-hermonville 09-08-2026 - 00:34 22.1°C / 41%
h1-hermonville 09-08-2026 - 00:34 22.1°C / 39%
h3-hermonville 09-08-2026 - 00:30 21.9°C / 37%
h4-hermonville 09-08-2026 - 00:28 23.1°C / 38.5%
h2-hermonville 09-08-2026 - 00:24 22.5°C / 42%
h1-hermonville 09-08-2026 - 00:24 22.1°C / 41%
h3-hermonville 09-08-2026 - 00:20 22°C / 36.5%
h4-hermonville 09-08-2026 - 00:18 23°C / 36.5%
h2-hermonville 09-08-2026 - 00:14 22.3°C / 40%
h1-hermonville 09-08-2026 - 00:14 22°C / 38.5%
h4-hermonville 09-08-2026 - 00:08 23.3°C / 38%
h2-hermonville 09-08-2026 - 00:04 22.3°C / 41%
h1-hermonville 09-08-2026 - 00:04 22.3°C / 39.5%
h3-hermonville 09-08-2026 - 00:00 22.5°C / 35%